createdAt,value
2017-06-18T00:02:07.139Z,94.60
2017-06-18T00:04:53.558Z,95.00
2017-06-18T00:07:29.004Z,95.20
2017-06-18T00:10:05.043Z,95.30
2017-06-18T00:12:40.200Z,95.20
2017-06-18T00:15:15.308Z,95.00
2017-06-18T00:17:55.367Z,95.10
2017-06-18T00:23:15.591Z,95.50
2017-06-18T00:25:59.836Z,95.20
2017-06-18T00:31:13.652Z,95.30
2017-06-18T00:33:55.098Z,95.30
2017-06-18T00:39:15.705Z,95.40
2017-06-18T00:41:59.775Z,95.50
2017-06-18T00:47:18.175Z,95.40
2017-06-18T00:49:55.473Z,95.80
2017-06-18T00:52:29.387Z,96.10
2017-06-18T00:55:05.324Z,96.40
2017-06-18T00:57:53.355Z,96.30
2017-06-18T01:00:39.254Z,96.50
2017-06-18T01:03:16.092Z,96.50
2017-06-18T01:05:55.395Z,96.50
2017-06-18T01:08:25.258Z,96.40
2017-06-18T01:10:55.367Z,96.60
2017-06-18T01:13:26.182Z,96.50
2017-06-18T01:15:59.813Z,96.60
2017-06-18T01:18:29.691Z,96.60
2017-06-18T01:21:01.231Z,97.20
2017-06-18T01:23:32.385Z,96.80
2017-06-18T01:26:02.338Z,96.70
2017-06-18T01:28:33.228Z,97.30
2017-06-18T01:31:04.087Z,97.30
2017-06-18T01:33:36.731Z,97.60
2017-06-18T01:36:06.608Z,97.50
2017-06-18T01:38:36.484Z,97.40
2017-06-18T01:41:07.263Z,97.40
2017-06-18T01:43:38.136Z,97.40
2017-06-18T01:46:14.003Z,97.40
2017-06-18T01:48:48.603Z,97.40
2017-06-18T01:51:18.409Z,97.40
2017-06-18T01:53:48.250Z,97.60
2017-06-18T01:56:19.115Z,97.80
2017-06-18T01:58:53.043Z,97.80
2017-06-18T02:01:28.871Z,97.70
2017-06-18T02:04:01.735Z,97.70
2017-06-18T02:06:37.500Z,98.10
2017-06-18T02:09:10.408Z,98.10
2017-06-18T02:11:51.704Z,98.60
2017-06-18T02:14:26.575Z,98.80
2017-06-18T02:16:56.388Z,98.80
2017-06-18T02:22:07.575Z,99.30
2017-06-18T02:24:39.436Z,99.80
2017-06-18T02:27:10.296Z,99.80
2017-06-18T02:29:44.155Z,99.80
2017-06-18T02:32:18.133Z,99.90
2017-06-18T02:34:53.209Z,99.90
2017-06-18T02:37:23.040Z,99.90
2017-06-18T02:39:54.635Z,99.90
2017-06-18T02:42:28.487Z,99.90
2017-06-18T02:45:06.795Z,99.90
2017-06-18T02:47:44.897Z,99.90
2017-06-18T02:50:14.995Z,99.90
2017-06-18T02:52:46.959Z,99.90
2017-06-18T02:55:26.160Z,99.90
2017-06-18T02:57:59.128Z,99.90
2017-06-18T03:00:32.760Z,99.90
2017-06-18T03:03:03.591Z,99.90
2017-06-18T03:05:40.484Z,99.90
2017-06-18T03:08:11.630Z,99.90
2017-06-18T03:10:51.652Z,99.90
2017-06-18T03:13:27.356Z,99.90
2017-06-18T03:16:00.202Z,99.90
2017-06-18T03:18:36.043Z,99.90
2017-06-18T03:21:14.200Z,99.90
2017-06-18T03:23:54.716Z,99.90
2017-06-18T03:26:29.499Z,99.90
2017-06-18T03:29:01.323Z,99.90
2017-06-18T03:34:14.263Z,99.90
2017-06-18T03:36:44.219Z,99.90
2017-06-18T03:39:19.214Z,99.90
2017-06-18T03:41:51.128Z,99.90
2017-06-18T03:44:25.016Z,99.90
2017-06-18T03:46:55.747Z,99.90
2017-06-18T03:49:28.639Z,99.90
2017-06-18T03:52:01.348Z,99.90
2017-06-18T03:54:33.256Z,99.90
2017-06-18T03:57:07.531Z,99.90
2017-06-18T03:59:42.304Z,99.90
2017-06-18T04:02:15.207Z,99.90
2017-06-18T04:04:50.795Z,99.90
2017-06-18T04:07:24.762Z,99.90
2017-06-18T04:09:58.357Z,99.90
2017-06-18T04:12:31.495Z,99.90
2017-06-18T04:15:02.616Z,99.90
2017-06-18T04:17:38.806Z,99.90
2017-06-18T04:20:10.734Z,99.90
2017-06-18T04:22:41.551Z,99.90
2017-06-18T04:25:14.435Z,99.90
2017-06-18T04:27:52.396Z,99.90
2017-06-18T04:30:24.294Z,99.90
2017-06-18T04:32:54.896Z,99.90
2017-06-18T04:35:26.780Z,99.90
2017-06-18T04:37:58.830Z,99.90
2017-06-18T04:40:38.121Z,99.90
2017-06-18T04:43:11.045Z,99.90
2017-06-18T04:45:41.847Z,99.90
2017-06-18T04:48:14.776Z,99.90
2017-06-18T04:50:48.706Z,99.90
2017-06-18T04:53:24.305Z,99.90
2017-06-18T04:55:58.196Z,99.90
2017-06-18T04:58:31.130Z,99.90
2017-06-18T05:01:06.316Z,99.90
2017-06-18T05:03:37.217Z,99.90
2017-06-18T05:06:08.851Z,99.90
2017-06-18T05:08:43.042Z,99.90
2017-06-18T05:11:19.388Z,99.90
2017-06-18T05:13:51.136Z,99.90
2017-06-18T05:16:24.079Z,99.90
2017-06-18T05:18:54.995Z,99.90
2017-06-18T05:24:05.715Z,99.90
2017-06-18T05:26:39.558Z,99.90
2017-06-18T05:29:15.811Z,99.90
2017-06-18T05:31:46.503Z,99.90
2017-06-18T05:34:17.355Z,99.90
2017-06-18T05:36:53.940Z,99.90
2017-06-18T05:39:24.815Z,99.90
2017-06-18T05:42:04.231Z,99.90
2017-06-18T05:44:34.998Z,99.90
2017-06-18T05:47:15.002Z,99.90
2017-06-18T05:49:44.806Z,99.90
2017-06-18T05:52:25.003Z,99.90
2017-06-18T05:54:56.903Z,99.90
2017-06-18T05:57:29.564Z,99.60
2017-06-18T06:00:08.539Z,99.50
2017-06-18T06:02:42.428Z,98.90
2017-06-18T06:05:22.404Z,97.30
2017-06-18T06:07:54.469Z,97.70
2017-06-18T06:10:24.851Z,96.40
2017-06-18T06:12:55.474Z,96.40
2017-06-18T06:15:27.121Z,96.20
2017-06-18T06:20:36.967Z,94.50
2017-06-18T06:23:10.931Z,94.40
2017-06-18T06:25:46.163Z,94.30
2017-06-18T06:28:24.436Z,93.20
2017-06-18T06:30:57.355Z,92.50
2017-06-18T06:33:29.466Z,91.50
2017-06-18T06:36:00.583Z,92.30
2017-06-18T06:38:31.628Z,90.50
2017-06-18T06:41:05.547Z,90.80
2017-06-18T06:43:37.443Z,90.00
2017-06-18T06:46:13.443Z,90.20
2017-06-18T06:48:44.350Z,90.60
2017-06-18T06:51:18.035Z,89.50
2017-06-18T06:53:48.991Z,89.60
2017-06-18T06:56:27.671Z,89.30
2017-06-18T06:59:02.506Z,89.20
2017-06-18T07:01:32.357Z,87.00
2017-06-18T07:04:05.971Z,80.60
2017-06-18T07:06:39.890Z,80.50
2017-06-18T07:09:11.093Z,77.40
2017-06-18T07:11:49.065Z,79.00
2017-06-18T07:14:24.007Z,75.00
2017-06-18T07:16:54.855Z,72.70
2017-06-18T07:19:27.739Z,77.90
2017-06-18T07:22:00.619Z,80.10
2017-06-18T07:24:33.531Z,75.70
2017-06-18T07:27:06.227Z,67.90
2017-06-18T07:29:48.400Z,67.70
2017-06-18T07:32:23.339Z,61.40
2017-06-18T07:35:01.071Z,62.80
2017-06-18T07:37:32.971Z,62.80
2017-06-18T07:40:05.051Z,62.10
2017-06-18T07:42:35.217Z,56.50
2017-06-18T07:45:08.167Z,56.70
2017-06-18T07:47:41.975Z,55.90
2017-06-18T07:50:13.908Z,55.80
2017-06-18T07:52:43.986Z,58.00
2017-06-18T07:55:14.886Z,60.00
2017-06-18T07:57:49.760Z,58.30
2017-06-18T08:00:22.590Z,58.20
2017-06-18T08:02:53.428Z,58.10
2017-06-18T08:05:27.531Z,57.60
2017-06-18T08:08:05.727Z,59.30
2017-06-18T08:10:37.645Z,54.70
2017-06-18T08:13:09.786Z,54.70
2017-06-18T08:15:43.627Z,52.50
2017-06-18T08:18:16.576Z,52.40
2017-06-18T08:20:47.455Z,49.10
2017-06-18T08:23:19.392Z,49.00
2017-06-18T08:25:55.423Z,45.10
2017-06-18T08:28:29.262Z,40.90
2017-06-18T08:31:03.185Z,41.50
2017-06-18T08:33:37.291Z,46.40
2017-06-18T08:36:11.076Z,49.30
2017-06-18T08:38:44.970Z,53.00
2017-06-18T08:41:18.631Z,55.50
2017-06-18T08:43:51.554Z,55.30
2017-06-18T08:46:25.279Z,55.20
2017-06-18T08:48:58.174Z,55.10
2017-06-18T08:51:32.033Z,51.20
2017-06-18T08:54:05.979Z,48.50
2017-06-18T08:56:36.872Z,49.80
2017-06-18T08:59:09.667Z,49.20
2017-06-18T09:01:41.235Z,45.00
2017-06-18T09:04:15.151Z,44.90
2017-06-18T09:06:45.324Z,46.80
2017-06-18T09:09:18.265Z,50.80
2017-06-18T09:11:52.069Z,54.20
2017-06-18T09:14:23.991Z,55.50
2017-06-18T09:16:55.878Z,52.00
2017-06-18T09:19:28.004Z,54.40
2017-06-18T09:22:01.108Z,54.80
2017-06-18T09:24:35.103Z,53.10
2017-06-18T09:27:07.349Z,55.70
2017-06-18T09:29:42.333Z,62.40
2017-06-18T09:32:17.060Z,52.20
2017-06-18T09:34:54.988Z,51.90
2017-06-18T09:37:30.926Z,51.80
2017-06-18T09:40:02.872Z,52.80
2017-06-18T09:42:40.587Z,49.30
2017-06-18T09:45:17.028Z,48.10
2017-06-18T09:47:47.061Z,48.10
2017-06-18T09:50:20.687Z,56.30
2017-06-18T09:52:55.754Z,56.40
2017-06-18T09:55:33.975Z,54.20
2017-06-18T09:58:07.183Z,53.40
2017-06-18T10:00:37.009Z,51.80
2017-06-18T10:03:08.822Z,48.10
2017-06-18T10:05:44.735Z,48.00
2017-06-18T10:08:26.016Z,46.80
2017-06-18T10:10:56.864Z,47.20
2017-06-18T10:13:27.949Z,49.10
2017-06-18T10:15:58.773Z,51.60
2017-06-18T10:18:34.673Z,51.00
2017-06-18T10:21:15.884Z,51.30
2017-06-18T10:23:49.047Z,51.10
2017-06-18T10:26:21.053Z,51.30
2017-06-18T10:28:52.083Z,50.50
2017-06-18T10:31:21.800Z,51.90
2017-06-18T10:33:53.702Z,54.50
2017-06-18T10:36:26.942Z,52.50
2017-06-18T10:39:01.887Z,54.60
2017-06-18T10:41:36.124Z,53.90
2017-06-18T10:44:12.095Z,54.90
2017-06-18T10:46:44.999Z,53.40
2017-06-18T10:49:14.831Z,51.60
2017-06-18T10:51:48.652Z,52.40
2017-06-18T10:54:20.714Z,51.20
2017-06-18T10:56:56.546Z,48.70
2017-06-18T10:59:26.383Z,49.70
2017-06-18T11:01:57.377Z,51.70
2017-06-18T11:04:27.897Z,51.50
2017-06-18T11:07:04.514Z,50.50
2017-06-18T11:09:34.384Z,50.30
2017-06-18T11:12:05.959Z,46.40
2017-06-18T11:14:46.164Z,46.40
2017-06-18T11:17:16.272Z,47.40
2017-06-18T11:19:51.467Z,49.30
2017-06-18T11:22:22.320Z,49.70
2017-06-18T11:24:53.107Z,53.90
2017-06-18T11:30:15.311Z,47.50
2017-06-18T11:33:04.328Z,48.60
2017-06-18T11:38:26.736Z,52.70
2017-06-18T11:41:10.153Z,52.90
2017-06-18T11:46:38.505Z,51.30
2017-06-18T11:49:12.285Z,50.80
2017-06-18T11:51:46.065Z,51.40
2017-06-18T11:54:20.866Z,50.20
2017-06-18T11:57:06.356Z,50.50
2017-06-18T12:02:27.885Z,53.50
2017-06-18T12:05:06.822Z,48.70
2017-06-18T12:10:29.278Z,49.40
2017-06-18T12:13:06.580Z,47.70
2017-06-18T12:15:38.465Z,47.80
2017-06-18T12:18:15.134Z,50.10
2017-06-18T12:20:49.942Z,48.00
2017-06-18T12:23:26.030Z,46.20
2017-06-18T12:26:11.536Z,47.10
2017-06-18T12:31:34.283Z,40.20
2017-06-18T12:34:14.500Z,42.10
2017-06-18T12:39:30.377Z,40.20
2017-06-18T12:42:03.495Z,41.90
2017-06-18T12:44:49.115Z,42.60
2017-06-18T12:47:25.585Z,43.00
2017-06-18T12:50:06.230Z,38.70
2017-06-18T12:52:47.083Z,37.60
2017-06-18T12:55:20.186Z,39.10
2017-06-18T12:58:05.883Z,36.40
2017-06-18T13:00:43.694Z,36.00
2017-06-18T13:03:20.764Z,33.30
2017-06-18T13:06:06.075Z,35.20
2017-06-18T13:08:47.819Z,39.70
2017-06-18T13:11:20.686Z,38.30
2017-06-18T13:14:06.246Z,37.40
2017-06-18T13:16:53.384Z,36.00
2017-06-18T13:19:26.789Z,34.90
2017-06-18T13:21:59.864Z,33.20
2017-06-18T13:27:10.767Z,37.60
2017-06-18T13:32:31.696Z,36.90
2017-06-18T13:35:08.070Z,37.60
2017-06-18T13:37:40.869Z,36.40
2017-06-18T13:43:05.672Z,35.90
2017-06-18T13:45:39.771Z,36.40
2017-06-18T13:51:13.253Z,38.30
2017-06-18T13:53:50.200Z,36.80
2017-06-18T13:56:35.720Z,35.30
2017-06-18T14:01:57.628Z,37.20
2017-06-18T14:04:47.503Z,36.80
2017-06-18T14:07:18.446Z,37.50
2017-06-18T14:09:50.781Z,38.30
2017-06-18T14:15:01.340Z,33.90
2017-06-18T14:17:41.415Z,34.90
2017-06-18T14:23:17.487Z,32.60
2017-06-18T14:25:50.615Z,35.90
2017-06-18T14:28:35.947Z,37.00
2017-06-18T14:31:20.916Z,37.00
2017-06-18T14:33:56.677Z,34.90
2017-06-18T14:36:35.855Z,34.60
2017-06-18T14:39:24.636Z,33.50
2017-06-18T14:41:57.222Z,36.90
2017-06-18T14:44:31.441Z,38.10
2017-06-18T14:47:10.048Z,40.00
2017-06-18T14:49:48.116Z,39.00
2017-06-18T14:52:22.247Z,39.00
2017-06-18T14:54:57.579Z,39.00
2017-06-18T14:57:37.331Z,39.10
2017-06-18T15:03:00.897Z,36.20
2017-06-18T15:05:36.532Z,34.30
2017-06-18T15:11:01.473Z,34.50
2017-06-18T15:13:36.588Z,34.90
2017-06-18T15:16:09.496Z,34.70
2017-06-18T15:18:46.807Z,35.40
2017-06-18T15:21:18.192Z,36.50
2017-06-18T15:23:50.220Z,36.60
2017-06-18T15:26:24.124Z,37.30
2017-06-18T15:29:07.457Z,39.50
2017-06-18T15:31:40.295Z,39.00
2017-06-18T15:37:05.370Z,37.40
2017-06-18T15:42:25.020Z,40.10
2017-06-18T15:45:06.300Z,40.90
2017-06-18T15:47:43.208Z,44.40
2017-06-18T15:50:20.366Z,43.40
2017-06-18T15:53:05.829Z,47.70
2017-06-18T15:55:44.869Z,46.50
2017-06-18T15:58:25.988Z,46.90
2017-06-18T16:00:55.937Z,45.50
2017-06-18T16:03:31.607Z,46.70
2017-06-18T16:11:36.528Z,48.20
2017-06-18T16:14:11.339Z,48.30
2017-06-18T16:19:42.189Z,48.10
2017-06-18T16:22:16.184Z,48.40
2017-06-18T16:24:48.054Z,47.70
2017-06-18T16:27:20.896Z,48.20
2017-06-18T16:29:50.680Z,48.30
2017-06-18T16:32:23.526Z,48.30
2017-06-18T16:35:05.888Z,48.80
2017-06-18T16:37:51.939Z,47.40
2017-06-18T16:40:27.262Z,46.90
2017-06-18T16:43:00.121Z,48.40
2017-06-18T16:48:17.851Z,48.90
2017-06-18T16:51:05.611Z,49.60
2017-06-18T16:53:50.365Z,50.90
2017-06-18T16:56:29.215Z,50.80
2017-06-18T17:01:47.685Z,50.50
2017-06-18T17:09:59.384Z,52.70
2017-06-18T17:12:47.555Z,52.90
2017-06-18T17:15:37.256Z,54.60
2017-06-18T17:21:02.233Z,52.00
2017-06-18T17:26:38.991Z,53.90
2017-06-18T17:32:11.233Z,54.60
2017-06-18T17:37:47.165Z,54.80
2017-06-18T17:46:04.487Z,54.40
2017-06-18T17:51:35.227Z,55.20
2017-06-18T17:54:21.724Z,57.00
2017-06-18T18:00:01.789Z,56.50
2017-06-18T18:02:42.143Z,56.00
2017-06-18T18:08:18.051Z,55.70
2017-06-18T18:11:00.925Z,56.20
2017-06-18T18:19:27.391Z,57.10
2017-06-18T18:22:11.614Z,56.70
2017-06-18T18:27:47.504Z,57.20
2017-06-18T18:36:04.508Z,57.30
2017-06-18T18:38:53.912Z,57.70
2017-06-18T18:41:35.320Z,57.70
2017-06-18T18:44:22.423Z,58.40
2017-06-18T18:58:22.131Z,59.60
2017-06-18T19:00:58.182Z,60.50
2017-06-18T19:06:33.953Z,61.40
2017-06-18T19:09:22.520Z,62.30
2017-06-18T19:17:47.675Z,63.30
2017-06-18T19:20:31.738Z,63.00
2017-06-18T19:26:08.534Z,64.40
2017-06-18T19:31:36.120Z,65.40
2017-06-18T19:34:22.600Z,66.40
2017-06-18T19:37:01.131Z,67.10
2017-06-18T19:39:37.434Z,67.40
2017-06-18T19:42:26.050Z,67.80
2017-06-18T19:45:03.258Z,68.30
2017-06-18T19:50:23.748Z,69.20
2017-06-18T19:52:54.595Z,69.20
2017-06-18T19:55:42.361Z,69.50
2017-06-18T19:58:13.418Z,69.80
2017-06-18T20:06:34.819Z,73.00
2017-06-18T20:14:40.717Z,74.90
2017-06-18T20:17:12.775Z,75.70
2017-06-18T20:19:44.651Z,75.70
2017-06-18T20:22:14.585Z,75.00
2017-06-18T20:24:45.353Z,76.00
2017-06-18T20:27:17.883Z,76.50
2017-06-18T20:29:51.045Z,78.10
2017-06-18T20:32:29.365Z,80.20
2017-06-18T20:35:02.192Z,80.90
2017-06-18T20:37:38.298Z,80.70
2017-06-18T20:40:08.183Z,80.60
2017-06-18T20:42:41.072Z,80.20
2017-06-18T20:45:12.705Z,80.90
2017-06-18T20:47:51.008Z,81.20
2017-06-18T20:53:25.787Z,81.20
2017-06-18T20:56:00.624Z,81.30
2017-06-18T20:58:44.669Z,82.60
2017-06-18T21:01:18.422Z,83.10
2017-06-18T21:03:53.517Z,82.30
2017-06-18T21:06:28.431Z,82.30
2017-06-18T21:09:00.574Z,82.90
2017-06-18T21:11:30.411Z,82.30
2017-06-18T21:14:05.668Z,82.60
2017-06-18T21:16:40.954Z,83.10
2017-06-18T21:19:15.989Z,83.20
2017-06-18T21:21:48.795Z,83.70
2017-06-18T21:24:18.695Z,83.80
2017-06-18T21:26:58.557Z,83.50
2017-06-18T21:29:31.547Z,83.60
2017-06-18T21:32:07.620Z,82.50
2017-06-18T21:34:39.713Z,82.90
2017-06-18T21:37:11.522Z,82.40
2017-06-18T21:39:44.309Z,82.80
2017-06-18T21:42:15.820Z,83.10
2017-06-18T21:44:53.147Z,83.50
2017-06-18T21:47:32.181Z,83.90
2017-06-18T21:50:05.241Z,84.40
2017-06-18T21:52:55.117Z,85.50
2017-06-18T21:55:27.208Z,85.30
2017-06-18T21:58:00.155Z,86.30
2017-06-18T22:00:34.177Z,87.50
2017-06-18T22:03:13.553Z,87.20
2017-06-18T22:05:50.494Z,87.50
2017-06-18T22:08:25.560Z,87.90
2017-06-18T22:11:00.718Z,89.20
2017-06-18T22:13:30.616Z,89.10
2017-06-18T22:16:06.525Z,90.20
2017-06-18T22:18:57.441Z,89.90
2017-06-18T22:21:35.537Z,89.70
2017-06-18T22:27:12.953Z,89.70
2017-06-18T22:35:37.613Z,89.80
2017-06-18T22:40:58.906Z,89.50
2017-06-18T22:46:13.811Z,89.80
2017-06-18T22:48:46.132Z,89.60
2017-06-18T22:51:25.007Z,89.40
2017-06-18T23:02:42.554Z,90.10
2017-06-18T23:05:29.847Z,89.90
2017-06-18T23:13:43.514Z,90.10
2017-06-18T23:19:05.619Z,90.50
2017-06-18T23:21:35.544Z,90.50
2017-06-18T23:24:06.423Z,90.40
2017-06-18T23:26:39.353Z,90.90
2017-06-18T23:29:10.258Z,90.80
2017-06-18T23:31:41.895Z,91.40
2017-06-18T23:34:11.731Z,91.30
2017-06-18T23:56:58.975Z,90.70
